createdAt,value
2019-05-03T00:00:07.459Z,1.12
2019-05-03T00:02:58.359Z,0.70
2019-05-03T00:05:32.440Z,0.90
2019-05-03T00:08:03.505Z,0.72
2019-05-03T00:10:32.478Z,0.88
2019-05-03T00:13:01.914Z,1.65
2019-05-03T00:15:45.202Z,1.00
2019-05-03T00:18:16.184Z,0.90
2019-05-03T00:20:45.321Z,0.85
2019-05-03T00:23:23.270Z,1.00
2019-05-03T00:25:52.486Z,1.25
2019-05-03T00:28:21.738Z,0.90
2019-05-03T00:30:52.009Z,1.20
2019-05-03T00:33:24.739Z,0.70
2019-05-03T00:36:13.505Z,0.90
2019-05-03T00:38:42.495Z,1.02
2019-05-03T00:41:12.205Z,0.93
2019-05-03T00:43:42.340Z,1.37
2019-05-03T00:46:12.641Z,1.02
2019-05-03T00:48:43.053Z,0.80
2019-05-03T00:51:12.216Z,0.90
2019-05-03T00:53:42.389Z,1.90
2019-05-03T00:56:12.251Z,0.82
2019-05-03T00:58:53.012Z,1.02
2019-05-03T01:01:22.636Z,0.60
2019-05-03T01:03:57.230Z,1.00
2019-05-03T01:06:26.114Z,1.57
2019-05-03T01:08:55.010Z,1.77
2019-05-03T01:11:24.089Z,0.70
2019-05-03T01:13:52.979Z,1.47
2019-05-03T01:16:23.460Z,1.17
2019-05-03T01:18:52.548Z,0.80
2019-05-03T01:21:22.500Z,0.98
2019-05-03T01:23:58.847Z,1.25
2019-05-03T01:26:27.723Z,1.47
2019-05-03T01:28:56.616Z,1.07
2019-05-03T01:31:25.523Z,1.22
2019-05-03T01:33:59.421Z,1.00
2019-05-03T01:36:28.317Z,0.80
2019-05-03T01:38:59.285Z,0.90
2019-05-03T01:41:28.245Z,1.37
2019-05-03T01:43:57.137Z,1.35
2019-05-03T01:46:28.729Z,1.00
2019-05-03T01:49:17.265Z,1.02
2019-05-03T01:52:04.023Z,1.00
2019-05-03T01:54:42.766Z,1.65
2019-05-03T01:57:11.880Z,1.05
2019-05-03T01:59:42.465Z,0.93
2019-05-03T02:02:13.951Z,0.82
2019-05-03T02:04:59.956Z,1.20
2019-05-03T02:07:28.941Z,0.55
2019-05-03T02:09:57.926Z,0.65
2019-05-03T02:12:26.908Z,1.10
2019-05-03T02:14:55.869Z,1.22
2019-05-03T02:17:24.766Z,1.07
2019-05-03T02:19:53.773Z,0.98
2019-05-03T02:22:26.000Z,0.72
2019-05-03T02:24:54.899Z,1.05
2019-05-03T02:27:30.117Z,1.50
2019-05-03T02:29:59.053Z,1.00
2019-05-03T02:32:28.207Z,0.88
2019-05-03T02:34:57.406Z,0.90
2019-05-03T02:37:26.549Z,0.70
2019-05-03T02:39:58.196Z,0.80
2019-05-03T02:42:35.750Z,0.82
2019-05-03T02:45:11.937Z,0.90
2019-05-03T02:48:00.883Z,1.57
2019-05-03T02:50:29.877Z,0.78
2019-05-03T02:52:58.975Z,0.98
2019-05-03T02:55:28.157Z,0.80
2019-05-03T02:57:57.262Z,0.90
2019-05-03T03:00:37.934Z,0.90
2019-05-03T03:03:06.925Z,0.57
2019-05-03T03:05:41.107Z,1.02
2019-05-03T03:08:10.548Z,1.50
2019-05-03T03:10:40.147Z,1.17
2019-05-03T03:13:12.438Z,0.85
2019-05-03T03:15:45.694Z,0.80
2019-05-03T03:18:15.760Z,0.93
2019-05-03T03:20:47.924Z,0.80
2019-05-03T03:23:18.742Z,0.93
2019-05-03T03:25:50.499Z,1.05
2019-05-03T03:28:21.641Z,1.00
2019-05-03T03:31:08.928Z,1.07
2019-05-03T03:33:40.184Z,1.37
2019-05-03T03:36:37.585Z,0.78
2019-05-03T03:38:40.660Z,0.70
2019-05-03T03:41:17.288Z,1.47
2019-05-03T03:43:47.765Z,1.98
2019-05-03T03:46:16.667Z,0.90
2019-05-03T03:48:47.183Z,0.80
2019-05-03T03:51:17.539Z,0.80
2019-05-03T03:53:47.627Z,1.12
2019-05-03T03:56:18.641Z,1.62
2019-05-03T03:58:47.668Z,0.90
2019-05-03T04:01:17.083Z,0.95
2019-05-03T04:03:46.158Z,0.95
2019-05-03T04:06:17.156Z,1.50
2019-05-03T04:08:48.446Z,0.98
2019-05-03T04:11:17.777Z,1.52
2019-05-03T04:13:47.557Z,1.47
2019-05-03T04:16:38.293Z,1.02
2019-05-03T04:19:11.759Z,1.20
2019-05-03T04:21:40.702Z,1.22
2019-05-03T04:24:10.374Z,1.15
2019-05-03T04:26:39.478Z,1.07
2019-05-03T04:29:08.503Z,1.32
2019-05-03T04:31:37.494Z,1.17
2019-05-03T04:34:07.553Z,1.20
2019-05-03T04:36:36.470Z,1.27
2019-05-03T04:39:17.083Z,1.32
2019-05-03T04:41:45.327Z,1.07
2019-05-03T04:44:21.020Z,1.30
2019-05-03T04:46:54.787Z,1.02
2019-05-03T04:49:26.214Z,1.75
2019-05-03T04:51:56.032Z,1.10
2019-05-03T04:54:26.614Z,1.60
2019-05-03T04:56:56.153Z,1.25
2019-05-03T04:59:25.644Z,1.30
2019-05-03T05:01:55.964Z,1.07
2019-05-03T05:04:25.490Z,1.22
2019-05-03T05:06:55.520Z,1.55
2019-05-03T05:09:25.892Z,1.20
2019-05-03T05:11:55.161Z,1.27
2019-05-03T05:14:25.867Z,1.30
2019-05-03T05:16:55.679Z,1.17
2019-05-03T05:19:44.970Z,1.77
2019-05-03T05:22:30.775Z,1.35
2019-05-03T05:25:01.219Z,1.60
2019-05-03T05:30:14.919Z,1.10
2019-05-03T05:32:45.404Z,1.25
2019-05-03T05:35:14.411Z,1.25
2019-05-03T05:37:44.375Z,1.30
2019-05-03T05:40:15.541Z,1.35
2019-05-03T05:42:52.119Z,1.00
2019-05-03T05:45:21.072Z,1.07
2019-05-03T05:47:51.624Z,0.95
2019-05-03T05:50:22.302Z,0.95
2019-05-03T05:52:51.282Z,0.60
2019-05-03T05:55:28.029Z,0.75
2019-05-03T05:58:08.378Z,0.50
2019-05-03T06:00:41.849Z,0.40
2019-05-03T06:03:10.880Z,0.70
2019-05-03T06:05:40.279Z,0.40
2019-05-03T06:08:18.057Z,0.40
2019-05-03T06:10:51.582Z,0.35
2019-05-03T06:13:27.853Z,0.60
2019-05-03T06:16:05.138Z,0.60
2019-05-03T06:18:54.555Z,0.60
2019-05-03T06:21:47.752Z,0.40
2019-05-03T06:24:30.179Z,0.70
2019-05-03T06:27:05.931Z,0.62
2019-05-03T06:29:35.215Z,0.47
2019-05-03T06:32:05.862Z,1.02
2019-05-03T06:34:35.464Z,0.70
2019-05-03T06:37:15.519Z,1.00
2019-05-03T06:39:45.376Z,0.40
2019-05-03T06:42:17.526Z,0.40
2019-05-03T06:44:54.610Z,0.70
2019-05-03T06:47:25.292Z,0.42
2019-05-03T06:49:55.232Z,0.72
2019-05-03T06:52:29.050Z,0.60
2019-05-03T06:55:00.478Z,0.72
2019-05-03T06:57:28.585Z,0.85
2019-05-03T07:00:00.455Z,0.70
2019-05-03T07:02:51.283Z,0.82
2019-05-03T07:05:35.443Z,0.70
2019-05-03T07:08:22.204Z,0.30
2019-05-03T07:10:55.422Z,0.35
2019-05-03T07:13:35.226Z,0.10
2019-05-03T07:16:04.708Z,0.57
2019-05-03T07:18:41.703Z,0.30
2019-05-03T07:21:15.178Z,0.60
2019-05-03T07:23:44.966Z,0.37
2019-05-03T07:26:15.089Z,0.60
2019-05-03T07:28:49.328Z,0.50
2019-05-03T07:31:15.775Z,0.50
2019-05-03T07:33:44.755Z,0.72
2019-05-03T07:36:15.230Z,0.60
2019-05-03T07:38:45.370Z,0.72
2019-05-03T07:41:14.982Z,0.60
2019-05-03T07:43:45.112Z,0.78
2019-05-03T07:46:14.753Z,0.75
2019-05-03T07:48:45.669Z,0.95
2019-05-03T07:51:14.927Z,0.70
2019-05-03T07:53:45.101Z,0.70
2019-05-03T07:56:15.731Z,1.15
2019-05-03T07:59:00.087Z,0.80
2019-05-03T08:01:21.550Z,1.12
2019-05-03T08:03:50.421Z,0.85
2019-05-03T08:06:19.391Z,0.78
2019-05-03T08:08:48.313Z,0.45
2019-05-03T08:11:17.419Z,0.93
2019-05-03T08:13:46.374Z,0.60
2019-05-03T08:16:16.061Z,0.70
2019-05-03T08:18:45.722Z,0.70
2019-05-03T08:21:15.049Z,1.05
2019-05-03T08:23:45.300Z,0.80
2019-05-03T08:26:15.306Z,1.10
2019-05-03T08:28:44.549Z,0.90
2019-05-03T08:31:31.623Z,1.00
2019-05-03T08:34:18.372Z,1.12
2019-05-03T08:37:01.131Z,1.00
2019-05-03T08:39:30.089Z,1.60
2019-05-03T08:42:00.592Z,0.85
2019-05-03T08:44:29.572Z,1.17
2019-05-03T08:47:00.046Z,1.50
2019-05-03T08:49:28.935Z,1.20
2019-05-03T08:51:57.840Z,1.00
2019-05-03T08:54:26.765Z,1.47
2019-05-03T08:56:55.885Z,1.55
2019-05-03T08:59:29.874Z,1.20
2019-05-03T09:01:55.445Z,1.42
2019-05-03T09:04:36.004Z,1.40
2019-05-03T09:06:55.168Z,1.62
2019-05-03T09:09:34.916Z,2.08
2019-05-03T09:12:04.706Z,1.27
2019-05-03T09:14:42.458Z,1.72
2019-05-03T09:17:05.005Z,1.12
2019-05-03T09:19:34.751Z,1.50
2019-05-03T09:22:06.146Z,1.47
2019-05-03T09:24:35.248Z,1.47
2019-05-03T09:27:05.002Z,1.75
2019-05-03T09:29:41.091Z,1.60
2019-05-03T09:32:05.352Z,1.40
2019-05-03T09:34:35.141Z,1.22
2019-05-03T09:37:04.782Z,1.00
2019-05-03T09:39:35.544Z,1.07
2019-05-03T09:42:04.865Z,1.20
2019-05-03T09:44:35.028Z,1.15
2019-05-03T09:47:05.611Z,1.17
2019-05-03T09:49:34.954Z,0.98
2019-05-03T09:52:07.992Z,1.02
2019-05-03T09:54:36.579Z,1.00
2019-05-03T09:57:05.923Z,0.95
2019-05-03T09:59:35.107Z,0.95
2019-05-03T10:02:04.859Z,1.10
2019-05-03T10:04:36.412Z,0.98
2019-05-03T10:07:04.841Z,0.82
2019-05-03T10:09:35.367Z,0.72
2019-05-03T10:12:06.177Z,1.02
2019-05-03T10:14:35.078Z,1.00
2019-05-03T10:17:15.962Z,1.00
2019-05-03T10:19:45.246Z,1.02
2019-05-03T10:22:34.907Z,1.07
2019-05-03T10:25:05.035Z,1.40
2019-05-03T10:27:46.085Z,1.47
2019-05-03T10:30:21.553Z,1.57
2019-05-03T10:32:54.801Z,1.00
2019-05-03T10:35:24.580Z,1.20
2019-05-03T10:37:54.852Z,0.60
2019-05-03T10:40:27.629Z,0.70
2019-05-03T10:42:56.624Z,0.70
2019-05-03T10:45:27.962Z,0.82
2019-05-03T10:47:56.243Z,1.20
2019-05-03T10:50:25.470Z,0.72
2019-05-03T10:53:04.968Z,0.60
2019-05-03T10:55:35.629Z,0.78
2019-05-03T10:58:18.095Z,1.00
2019-05-03T11:00:52.839Z,0.82
2019-05-03T11:03:19.772Z,1.02
2019-05-03T11:05:48.725Z,0.70
2019-05-03T11:08:17.649Z,1.05
2019-05-03T11:10:46.601Z,1.20
2019-05-03T11:13:15.583Z,0.62
2019-05-03T11:15:44.785Z,0.60
2019-05-03T11:18:14.739Z,0.70
2019-05-03T11:20:45.250Z,2.65
2019-05-03T11:23:14.682Z,0.93
2019-05-03T11:25:45.210Z,1.05
2019-05-03T11:28:19.228Z,0.80
2019-05-03T11:30:55.602Z,0.40
2019-05-03T11:33:35.502Z,0.75
2019-05-03T11:36:11.970Z,0.75
2019-05-03T11:38:42.473Z,1.02
2019-05-03T11:41:11.572Z,0.82
2019-05-03T11:43:40.458Z,0.82
2019-05-03T11:46:09.405Z,0.80
2019-05-03T11:48:38.449Z,0.75
2019-05-03T11:51:07.353Z,0.88
2019-05-03T11:53:36.289Z,0.80
2019-05-03T11:56:05.588Z,1.00
2019-05-03T11:58:34.669Z,0.80
2019-05-03T12:01:14.895Z,1.00
2019-05-03T12:03:40.466Z,1.15
2019-05-03T12:06:09.422Z,0.90
2019-05-03T12:08:38.332Z,1.07
2019-05-03T12:11:07.222Z,1.02
2019-05-03T12:13:36.173Z,0.82
2019-05-03T12:16:17.457Z,0.50
2019-05-03T12:18:49.019Z,0.90
2019-05-03T12:21:08.638Z,1.07
2019-05-03T12:23:38.022Z,1.25
2019-05-03T12:26:12.594Z,1.40
2019-05-03T12:28:38.055Z,1.17
2019-05-03T12:31:06.973Z,1.40
2019-05-03T12:33:35.880Z,0.98
2019-05-03T12:36:05.515Z,1.10
2019-05-03T12:38:35.057Z,1.30
2019-05-03T12:41:05.619Z,1.00
2019-05-03T12:43:34.886Z,1.15
2019-05-03T12:46:05.144Z,1.47
2019-05-03T12:48:35.459Z,1.07
2019-05-03T12:51:06.598Z,1.50
2019-05-03T12:53:36.207Z,1.50
2019-05-03T12:56:11.495Z,1.15
2019-05-03T12:58:54.969Z,1.87
2019-05-03T13:01:42.104Z,1.10
2019-05-03T13:04:12.761Z,1.22
2019-05-03T13:06:49.337Z,1.00
2019-05-03T13:09:18.264Z,1.32
2019-05-03T13:11:55.353Z,0.90
2019-05-03T13:14:19.585Z,0.62
2019-05-03T13:16:49.961Z,0.80
2019-05-03T13:19:19.006Z,0.62
2019-05-03T13:21:49.630Z,0.50
2019-05-03T13:24:23.104Z,0.80
2019-05-03T13:26:51.040Z,0.75
2019-05-03T13:29:20.054Z,0.78
2019-05-03T13:31:58.091Z,0.90
2019-05-03T13:34:19.528Z,0.80
2019-05-03T13:36:48.465Z,1.10
2019-05-03T13:39:17.363Z,0.78
2019-05-03T13:41:46.296Z,0.80
2019-05-03T13:44:15.759Z,0.95
2019-05-03T13:46:44.869Z,0.70
2019-05-03T13:49:15.715Z,0.93
2019-05-03T13:51:45.186Z,0.50
2019-05-03T13:54:14.934Z,0.47
2019-05-03T13:56:44.102Z,0.35
2019-05-03T13:59:19.769Z,0.40
2019-05-03T14:01:45.100Z,0.70
2019-05-03T14:04:14.807Z,0.60
2019-05-03T14:06:44.712Z,0.62
2019-05-03T14:09:13.801Z,0.57
2019-05-03T14:11:44.668Z,0.40
2019-05-03T14:14:15.078Z,0.23
2019-05-03T14:16:45.179Z,0.50
2019-05-03T14:19:20.079Z,0.40
2019-05-03T14:21:50.559Z,1.00
2019-05-03T14:24:19.450Z,0.57
2019-05-03T14:26:48.395Z,0.50
2019-05-03T14:29:17.283Z,0.60
2019-05-03T14:31:46.200Z,0.45
2019-05-03T14:34:17.563Z,0.45
2019-05-03T14:36:45.789Z,0.20
2019-05-03T14:39:16.152Z,0.25
2019-05-03T14:41:46.921Z,0.20
2019-05-03T14:44:18.041Z,0.50
2019-05-03T14:46:46.279Z,0.30
2019-05-03T14:49:15.239Z,0.40
2019-05-03T14:51:45.543Z,0.40
2019-05-03T14:54:15.365Z,0.40
2019-05-03T14:56:49.178Z,0.45
2019-05-03T14:59:31.733Z,0.50
2019-05-03T15:02:05.132Z,0.30
2019-05-03T15:04:35.072Z,0.40
2019-05-03T15:07:06.108Z,0.30
2019-05-03T15:09:35.310Z,0.70
2019-05-03T15:12:05.404Z,0.70
2019-05-03T15:14:34.727Z,0.70
2019-05-03T15:17:05.344Z,0.62
2019-05-03T15:19:34.923Z,0.37
2019-05-03T15:22:05.635Z,0.60
2019-05-03T15:24:34.859Z,0.93
2019-05-03T15:27:04.903Z,0.60
2019-05-03T15:29:35.471Z,0.57
2019-05-03T15:32:05.430Z,1.07
2019-05-03T15:34:35.462Z,1.60
2019-05-03T15:37:05.433Z,0.98
2019-05-03T15:39:34.635Z,1.37
2019-05-03T15:42:05.272Z,2.67
2019-05-03T15:44:54.528Z,2.40
2019-05-03T15:47:28.229Z,2.00
2019-05-03T15:49:57.132Z,1.40
2019-05-03T15:52:26.067Z,2.05
2019-05-03T15:54:55.184Z,8.70
2019-05-03T15:57:25.237Z,7.22
2019-05-03T15:59:55.127Z,3.62
2019-05-03T16:02:24.710Z,1.12
2019-05-03T16:04:55.417Z,0.57
2019-05-03T16:07:24.986Z,0.47
2019-05-03T16:09:55.287Z,0.70
2019-05-03T16:12:24.490Z,0.60
2019-05-03T16:14:55.097Z,0.80
2019-05-03T16:17:24.496Z,1.30
2019-05-03T16:19:55.609Z,0.82
2019-05-03T16:22:24.881Z,0.85
2019-05-03T16:24:55.714Z,0.53
2019-05-03T16:27:28.946Z,0.53
2019-05-03T16:29:57.851Z,0.50
2019-05-03T16:32:26.742Z,0.82
2019-05-03T16:34:55.665Z,0.65
2019-05-03T16:37:25.462Z,0.88
2019-05-03T16:39:55.566Z,0.75
2019-05-03T16:42:25.264Z,0.70
2019-05-03T16:44:54.968Z,0.60
2019-05-03T16:47:24.949Z,0.53
2019-05-03T16:49:54.240Z,0.93
2019-05-03T16:52:23.172Z,0.90
2019-05-03T16:54:52.056Z,0.80
2019-05-03T16:57:21.001Z,0.95
2019-05-03T16:59:49.893Z,0.70
2019-05-03T17:02:18.789Z,0.70
2019-05-03T17:04:49.388Z,0.70
2019-05-03T17:07:35.414Z,1.10
2019-05-03T17:10:15.323Z,0.68
2019-05-03T17:12:45.423Z,0.68
2019-05-03T17:15:14.888Z,0.65
2019-05-03T17:17:45.121Z,1.35
2019-05-03T17:20:16.463Z,0.82
2019-05-03T17:22:45.153Z,1.02
2019-05-03T17:25:15.024Z,0.75
2019-05-03T17:27:44.922Z,0.85
2019-05-03T17:30:14.314Z,1.35
2019-05-03T17:32:44.602Z,0.82
2019-05-03T17:35:14.499Z,0.45
2019-05-03T17:37:45.197Z,1.22
2019-05-03T17:40:16.051Z,0.70
2019-05-03T17:42:58.712Z,0.88
2019-05-03T17:45:32.010Z,1.22
2019-05-03T17:48:00.965Z,0.60
2019-05-03T17:50:29.914Z,0.93
2019-05-03T17:53:00.461Z,0.95
2019-05-03T17:55:31.672Z,0.60
2019-05-03T17:58:11.710Z,0.95
2019-05-03T18:00:48.463Z,1.27
2019-05-03T18:03:18.152Z,0.40
2019-05-03T18:05:48.847Z,0.50
2019-05-03T18:08:31.919Z,0.70
2019-05-03T18:11:05.804Z,0.80
2019-05-03T18:13:35.884Z,0.72
2019-05-03T18:16:05.274Z,0.50
2019-05-03T18:18:35.256Z,0.72
2019-05-03T18:21:06.989Z,0.40
2019-05-03T18:23:36.445Z,0.28
2019-05-03T18:26:07.184Z,0.20
2019-05-03T18:28:36.217Z,0.37
2019-05-03T18:31:28.542Z,0.20
2019-05-03T18:33:59.431Z,0.50
2019-05-03T18:36:32.413Z,0.72
2019-05-03T18:39:02.125Z,0.50
2019-05-03T18:41:31.135Z,0.50
2019-05-03T18:44:18.742Z,0.82
2019-05-03T18:46:49.347Z,0.65
2019-05-03T18:49:18.446Z,0.50
2019-05-03T18:51:47.635Z,0.72
2019-05-03T18:54:16.735Z,0.50
2019-05-03T18:56:45.642Z,0.70
2019-05-03T18:59:16.946Z,0.70
2019-05-03T19:01:45.942Z,0.70
2019-05-03T19:04:16.383Z,0.80
2019-05-03T19:06:45.330Z,0.70
2019-05-03T19:09:28.445Z,0.75
2019-05-03T19:12:09.970Z,0.85
2019-05-03T19:14:38.979Z,0.65
2019-05-03T19:17:28.251Z,1.00
2019-05-03T19:19:58.710Z,1.07
2019-05-03T19:22:27.653Z,1.32
2019-05-03T19:25:06.333Z,1.07
2019-05-03T19:27:36.637Z,1.22
2019-05-03T19:30:10.245Z,0.60
2019-05-03T19:32:39.126Z,0.72
2019-05-03T19:35:09.259Z,1.02
2019-05-03T19:37:39.582Z,1.07
2019-05-03T19:40:14.338Z,0.60
2019-05-03T19:42:45.463Z,1.12
2019-05-03T19:45:15.181Z,0.93
2019-05-03T19:47:50.052Z,0.80
2019-05-03T19:50:21.034Z,0.98
2019-05-03T19:53:12.012Z,0.88
2019-05-03T19:55:40.938Z,0.75
2019-05-03T19:58:09.821Z,0.70
2019-05-03T20:00:52.376Z,0.70
2019-05-03T20:03:40.033Z,0.70
2019-05-03T20:06:34.745Z,0.62
2019-05-03T20:09:05.411Z,0.53
2019-05-03T20:11:35.762Z,0.90
2019-05-03T20:14:04.828Z,0.90
2019-05-03T20:16:34.652Z,0.70
2019-05-03T20:19:17.477Z,0.93
2019-05-03T20:21:38.716Z,1.02
2019-05-03T20:24:10.411Z,1.55
2019-05-03T20:26:44.950Z,1.47
2019-05-03T20:29:21.428Z,2.00
2019-05-03T20:31:50.452Z,1.50
2019-05-03T20:34:19.853Z,1.45
2019-05-03T20:36:57.017Z,1.87
2019-05-03T20:39:25.907Z,1.12
2019-05-03T20:41:55.130Z,1.42
2019-05-03T20:44:25.797Z,1.72
2019-05-03T20:47:05.501Z,1.15
2019-05-03T20:49:34.858Z,1.00
2019-05-03T20:52:04.026Z,1.50
2019-05-03T20:54:34.853Z,1.42
2019-05-03T20:57:05.297Z,0.70
2019-05-03T20:59:42.941Z,1.42
2019-05-03T21:02:06.038Z,1.00
2019-05-03T21:04:35.450Z,0.60
2019-05-03T21:07:04.758Z,0.93
2019-05-03T21:09:34.531Z,2.02
2019-05-03T21:12:04.483Z,1.35
2019-05-03T21:14:35.085Z,0.80
2019-05-03T21:17:11.467Z,1.40
2019-05-03T21:19:44.766Z,1.25
2019-05-03T21:22:17.946Z,2.02
2019-05-03T21:24:48.494Z,1.15
2019-05-03T21:27:17.379Z,1.32
2019-05-03T21:29:55.138Z,0.90
2019-05-03T21:32:25.108Z,0.90
2019-05-03T21:34:55.725Z,0.88
2019-05-03T21:37:29.119Z,1.57
2019-05-03T21:39:58.241Z,1.10
2019-05-03T21:42:28.486Z,1.30
2019-05-03T21:44:58.474Z,1.27
2019-05-03T21:47:35.200Z,1.30
2019-05-03T21:50:08.204Z,1.40
2019-05-03T21:52:37.635Z,0.80
2019-05-03T21:55:09.549Z,0.88
2019-05-03T21:57:39.006Z,0.60
2019-05-03T22:00:10.942Z,0.70
2019-05-03T22:02:45.957Z,0.90
2019-05-03T22:05:18.649Z,0.95
2019-05-03T22:07:47.651Z,1.10
2019-05-03T22:10:16.932Z,1.22
2019-05-03T22:12:45.891Z,1.00
2019-05-03T22:15:27.693Z,1.65
2019-05-03T22:18:01.212Z,1.50
2019-05-03T22:20:50.073Z,1.32
2019-05-03T22:23:30.515Z,1.62
2019-05-03T22:26:12.309Z,1.27
2019-05-03T22:28:49.325Z,1.47
2019-05-03T22:31:18.280Z,2.80
2019-05-03T22:33:47.157Z,2.37
2019-05-03T22:36:16.046Z,1.35
2019-05-03T22:38:45.356Z,1.15
2019-05-03T22:41:14.779Z,1.85
2019-05-03T22:43:45.663Z,2.40
2019-05-03T22:46:15.141Z,1.67
2019-05-03T22:48:44.923Z,1.40
2019-05-03T22:51:15.705Z,1.60
2019-05-03T22:53:44.973Z,2.02
2019-05-03T22:56:14.443Z,1.30
2019-05-03T22:58:45.735Z,1.07
2019-05-03T23:01:25.480Z,1.80
2019-05-03T23:03:55.092Z,1.25
2019-05-03T23:06:28.073Z,1.40
2019-05-03T23:09:00.986Z,1.02
2019-05-03T23:11:29.948Z,1.45
2019-05-03T23:14:01.892Z,2.17
2019-05-03T23:16:31.879Z,1.45
2019-05-03T23:19:01.241Z,1.32
2019-05-03T23:21:31.981Z,1.80
2019-05-03T23:24:01.077Z,1.20
2019-05-03T23:26:30.173Z,1.12
2019-05-03T23:28:59.248Z,1.57
2019-05-03T23:31:30.998Z,1.35
2019-05-03T23:34:00.028Z,2.25
2019-05-03T23:36:33.704Z,1.82
2019-05-03T23:39:00.002Z,1.70
2019-05-03T23:41:29.358Z,1.98
2019-05-03T23:43:58.545Z,1.67
2019-05-03T23:46:29.191Z,1.90
2019-05-03T23:48:58.287Z,2.40
2019-05-03T23:51:46.931Z,1.70
2019-05-03T23:54:16.076Z,1.67
2019-05-03T23:56:45.860Z,1.15
2019-05-03T23:59:15.253Z,2.22
